createdAt,value
2017-11-15T00:09:08.765Z,-1.44
2017-11-15T00:15:44.324Z,-1.22
2017-11-15T00:39:21.056Z,-1.22
2017-11-15T01:11:59.989Z,-1.28
2017-11-15T01:14:27.505Z,-1.53
2017-11-15T01:16:55.010Z,-1.50
2017-11-15T01:19:22.523Z,-1.31
2017-11-15T01:21:50.032Z,-0.65
2017-11-15T01:24:17.545Z,-1.19
2017-11-15T01:26:45.238Z,-0.80
2017-11-15T01:29:12.798Z,-1.15
2017-11-15T01:31:40.302Z,-0.61
2017-11-15T01:34:07.826Z,-0.73
2017-11-15T01:36:35.355Z,-0.65
2017-11-15T01:39:02.879Z,-0.76
2017-11-15T01:41:30.392Z,-0.79
2017-11-15T01:43:57.916Z,-0.82
2017-11-15T01:46:25.437Z,-0.58
2017-11-15T01:48:52.952Z,-0.47
2017-11-15T01:51:20.459Z,-0.97
2017-11-15T01:53:47.968Z,-0.83
2017-11-15T01:56:15.486Z,-1.40
2017-11-15T01:58:43.009Z,-1.30
2017-11-15T02:01:14.338Z,-1.42
2017-11-15T02:03:41.885Z,-1.61
2017-11-15T02:06:09.436Z,-1.48
2017-11-15T02:08:36.979Z,-1.61
2017-11-15T02:11:04.502Z,-1.23
2017-11-15T02:13:32.001Z,-1.09
2017-11-15T02:15:59.547Z,-1.17
2017-11-15T02:18:27.285Z,-0.94
2017-11-15T02:20:54.798Z,-0.79
2017-11-15T02:23:22.362Z,-1.10
2017-11-15T02:25:50.802Z,-0.97
2017-11-15T02:28:18.321Z,-1.07
2017-11-15T02:30:45.830Z,-0.92
2017-11-15T02:33:13.332Z,-1.00
2017-11-15T02:35:40.856Z,-1.26
2017-11-15T02:38:08.382Z,-0.69
2017-11-15T02:40:35.882Z,-0.35
2017-11-15T02:43:04.362Z,-0.15
2017-11-15T02:45:32.706Z,-0.58
2017-11-15T02:48:00.226Z,-0.29
2017-11-15T02:50:28.470Z,-0.08
2017-11-15T02:52:55.983Z,-0.09
2017-11-15T02:55:23.492Z,-0.27
2017-11-15T02:57:51.006Z,-0.71
2017-11-15T03:00:18.504Z,-0.79
2017-11-15T03:02:46.892Z,-0.98
2017-11-15T03:05:14.414Z,-0.72
2017-11-15T03:07:41.939Z,-0.13
2017-11-15T03:10:09.440Z,-0.16
2017-11-15T03:12:36.965Z,-0.45
2017-11-15T03:15:04.483Z,-0.33
2017-11-15T03:17:31.997Z,-0.96
2017-11-15T03:19:59.498Z,-0.68
2017-11-15T03:22:27.017Z,-0.17
2017-11-15T03:24:54.524Z,-0.63
2017-11-15T03:27:22.039Z,-0.20
2017-11-15T03:29:49.559Z,-0.56
2017-11-15T03:32:17.069Z,-1.13
2017-11-15T03:34:44.574Z,-1.09
2017-11-15T03:37:12.098Z,-1.49
2017-11-15T03:39:39.629Z,-1.46
2017-11-15T03:48:53.291Z,-1.50
2017-11-15T03:51:20.822Z,-1.25
2017-11-15T03:53:48.326Z,-1.33
2017-11-15T03:56:15.864Z,-1.26
2017-11-15T03:58:43.379Z,-1.09
2017-11-15T04:01:10.883Z,-1.06
2017-11-15T04:03:38.377Z,-0.94
2017-11-15T04:06:05.895Z,-0.49
2017-11-15T04:08:33.402Z,-0.61
2017-11-15T04:11:00.917Z,-0.68
2017-11-15T04:13:28.422Z,-0.95
2017-11-15T04:15:55.929Z,-1.02
2017-11-15T04:18:23.425Z,-0.79
2017-11-15T04:20:50.917Z,-0.55
2017-11-15T04:23:18.419Z,-0.90
2017-11-15T04:25:45.905Z,-0.47
2017-11-15T04:28:13.408Z,-0.17
2017-11-15T04:30:40.901Z,-0.65
2017-11-15T04:33:08.405Z,-0.55
2017-11-15T04:35:35.917Z,-1.09
2017-11-15T04:38:03.411Z,-1.26
2017-11-15T04:40:30.931Z,-1.50
2017-11-15T04:42:58.445Z,-1.20
2017-11-15T04:45:25.956Z,-1.21
2017-11-15T04:47:53.461Z,-1.50
2017-11-15T04:50:20.987Z,-1.42
2017-11-15T04:52:48.650Z,-1.46
2017-11-15T04:55:16.243Z,-1.91
2017-11-15T04:57:43.810Z,-1.76
2017-11-15T05:00:11.341Z,-1.59
2017-11-15T05:02:38.856Z,-1.77
2017-11-15T05:05:06.460Z,-1.66
2017-11-15T05:07:33.995Z,-1.17
2017-11-15T05:10:01.501Z,-1.38
2017-11-15T05:12:29.013Z,-1.17
2017-11-15T05:14:56.527Z,-0.84
2017-11-15T05:17:24.148Z,-0.98
2017-11-15T05:19:51.645Z,-1.42
2017-11-15T05:22:19.175Z,-1.65
2017-11-15T05:24:46.708Z,-1.28
2017-11-15T05:27:14.298Z,-1.02
2017-11-15T05:29:42.271Z,-1.05
2017-11-15T05:32:09.770Z,-0.80
2017-11-15T05:34:37.300Z,-1.28
2017-11-15T05:37:04.839Z,-1.54
2017-11-15T05:39:32.351Z,-1.65
2017-11-15T05:41:59.874Z,-1.37
2017-11-15T05:44:27.394Z,-1.14
2017-11-15T05:46:54.911Z,-1.21
2017-11-15T05:49:22.412Z,-0.93
2017-11-15T05:51:49.929Z,-0.73
2017-11-15T05:54:17.439Z,-0.71
2017-11-15T05:56:44.973Z,-0.87
2017-11-15T05:59:12.480Z,-0.66
2017-11-15T06:01:40.031Z,-1.16
2017-11-15T06:04:07.548Z,-1.51
2017-11-15T06:06:35.095Z,-1.11
2017-11-15T06:09:02.736Z,-0.64
2017-11-15T06:11:31.123Z,-0.91
2017-11-15T06:13:58.616Z,-1.04
2017-11-15T06:16:26.277Z,-1.01
2017-11-15T06:18:53.772Z,-0.83
2017-11-15T06:21:21.300Z,-0.89
2017-11-15T06:23:48.826Z,-1.36
2017-11-15T06:26:16.395Z,-1.10
2017-11-15T06:28:43.961Z,-1.05
2017-11-15T06:31:11.502Z,-1.02
2017-11-15T06:33:38.947Z,-1.36
2017-11-15T06:36:06.463Z,-1.48
2017-11-15T06:38:33.971Z,-1.49
2017-11-15T06:41:01.489Z,-1.38
2017-11-15T06:43:29.004Z,-0.84
2017-11-15T06:45:56.521Z,-0.99
2017-11-15T06:48:24.037Z,-0.98
2017-11-15T06:50:51.550Z,-0.49
2017-11-15T06:53:19.749Z,-0.55
2017-11-15T06:55:47.275Z,-1.16
2017-11-15T06:58:14.778Z,-0.48
2017-11-15T07:00:42.293Z,-0.53
2017-11-15T07:03:09.857Z,-0.59
2017-11-15T07:05:37.385Z,-0.37
2017-11-15T07:08:04.907Z,-0.22
2017-11-15T07:10:32.399Z,-0.43
2017-11-15T07:12:59.928Z,-0.78
2017-11-15T07:15:27.423Z,-0.59
2017-11-15T07:17:54.930Z,-0.57
2017-11-15T07:20:22.429Z,-0.85
2017-11-15T07:22:49.950Z,-0.89
2017-11-15T07:25:17.457Z,-0.66
2017-11-15T07:27:44.987Z,-0.42
2017-11-15T07:30:12.485Z,-0.35
2017-11-15T07:32:40.017Z,-0.46
2017-11-15T07:35:07.518Z,-0.14
2017-11-15T07:37:35.035Z,-0.46
2017-11-15T07:40:02.551Z,-0.88
2017-11-15T07:42:30.062Z,-0.89
2017-11-15T07:44:57.574Z,-0.80
2017-11-15T07:47:25.090Z,-0.73
2017-11-15T07:49:52.599Z,-0.91
2017-11-15T07:52:20.137Z,-0.75
2017-11-15T07:54:47.677Z,-0.83
2017-11-15T07:57:15.192Z,-0.74
2017-11-15T07:59:42.698Z,-0.47
2017-11-15T08:02:10.208Z,-0.48
2017-11-15T08:04:37.737Z,-0.24
2017-11-15T08:07:05.284Z,-0.24
2017-11-15T08:09:32.796Z,-0.76
2017-11-15T08:12:00.320Z,-0.35
2017-11-15T08:14:27.840Z,-0.57
2017-11-15T08:16:55.347Z,-0.63
2017-11-15T08:19:22.991Z,-0.52
2017-11-15T08:21:50.496Z,-0.35
2017-11-15T08:24:18.009Z,-0.98
2017-11-15T08:26:45.530Z,-0.28
2017-11-15T08:29:13.044Z,-0.31
2017-11-15T08:31:40.579Z,-0.41
2017-11-15T08:34:08.115Z,-0.83
2017-11-15T08:36:35.625Z,-0.66
2017-11-15T08:39:03.148Z,-0.37
2017-11-15T08:41:30.665Z,-0.16
2017-11-15T08:43:58.178Z,-0.09
2017-11-15T08:46:25.688Z,-0.17
2017-11-15T08:48:53.216Z,-0.27
2017-11-15T08:51:20.720Z,-0.35
2017-11-15T08:53:48.237Z,-0.38
2017-11-15T08:56:15.735Z,0.23
2017-11-15T08:58:43.355Z,0.24
2017-11-15T09:01:10.863Z,0.49
2017-11-15T09:03:38.387Z,-0.36
2017-11-15T09:06:05.895Z,-0.34
2017-11-15T09:08:33.426Z,0.35
2017-11-15T09:11:00.997Z,-0.19
2017-11-15T09:13:28.521Z,-0.39
2017-11-15T09:15:56.041Z,-0.27
2017-11-15T09:18:23.531Z,0.74
2017-11-15T09:20:51.033Z,0.97
2017-11-15T09:23:18.609Z,-0.32
2017-11-15T09:25:46.111Z,-0.86
2017-11-15T09:28:13.627Z,-0.80
2017-11-15T09:30:41.135Z,-0.11
2017-11-15T09:33:08.638Z,-0.14
2017-11-15T09:35:36.131Z,0.51
2017-11-15T09:38:03.665Z,0.88
2017-11-15T09:40:31.186Z,1.25
2017-11-15T09:42:58.691Z,1.24
2017-11-15T09:45:26.213Z,0.97
2017-11-15T09:47:53.753Z,1.65
2017-11-15T09:50:22.120Z,-0.59
2017-11-15T09:52:49.638Z,-0.75
2017-11-15T09:55:17.154Z,0.32
2017-11-15T09:57:44.654Z,1.07
2017-11-15T10:00:12.163Z,1.63
2017-11-15T10:02:40.449Z,0.83
2017-11-15T10:05:07.943Z,0.72
2017-11-15T10:07:35.463Z,0.46
2017-11-15T10:10:03.041Z,0.98
2017-11-15T10:16:51.313Z,1.56
2017-11-15T10:20:11.937Z,1.63
2017-11-15T10:27:23.745Z,1.19
2017-11-15T10:34:00.797Z,0.02
2017-11-15T10:40:58.579Z,1.83
2017-11-15T10:58:16.006Z,0.29
2017-11-15T11:08:04.469Z,2.79
2017-11-15T11:11:15.785Z,2.34
2017-11-15T11:18:13.259Z,3.21
2017-11-15T11:41:59.731Z,8.18
2017-11-15T11:45:12.598Z,11.11
2017-11-15T11:52:08.964Z,9.99
2017-11-15T12:29:13.045Z,6.49
2017-11-15T12:49:07.881Z,12.69
2017-11-15T12:52:27.342Z,10.25
2017-11-15T12:59:24.102Z,9.12
2017-11-15T13:36:28.854Z,10.37
2017-11-15T13:50:31.666Z,7.51
2017-11-15T13:53:50.078Z,9.45
2017-11-15T14:31:29.434Z,7.90
2017-11-15T14:38:08.652Z,4.92
2017-11-15T14:48:13.292Z,5.31
2017-11-15T14:54:38.475Z,2.97
2017-11-15T14:57:49.764Z,2.75
2017-11-15T15:07:49.399Z,1.78
2017-11-15T15:10:38.836Z,2.05
2017-11-15T15:13:06.391Z,2.40
2017-11-15T15:15:33.934Z,2.55
2017-11-15T15:18:01.439Z,2.04
2017-11-15T15:20:28.947Z,1.94
2017-11-15T15:22:56.471Z,1.75
2017-11-15T15:25:23.976Z,2.11
2017-11-15T15:27:51.480Z,1.86
2017-11-15T15:30:19.058Z,2.05
2017-11-15T15:32:46.579Z,2.02
2017-11-15T15:35:14.097Z,2.41
2017-11-15T15:37:41.600Z,2.27
2017-11-15T15:40:09.126Z,1.84
2017-11-15T15:42:36.643Z,1.80
2017-11-15T15:45:04.154Z,1.80
2017-11-15T15:47:31.849Z,1.91
2017-11-15T15:49:59.391Z,1.53
2017-11-15T15:52:26.914Z,1.01
2017-11-15T15:54:54.425Z,0.84
2017-11-15T15:57:21.949Z,0.80
2017-11-15T16:00:45.488Z,1.06
2017-11-15T16:03:14.786Z,1.37
2017-11-15T16:05:49.072Z,1.58
2017-11-15T16:08:21.314Z,1.69
2017-11-15T16:10:51.155Z,1.53
2017-11-15T16:13:31.295Z,1.31
2017-11-15T16:16:01.013Z,0.58
2017-11-15T16:18:28.544Z,0.16
2017-11-15T16:20:56.057Z,0.09
2017-11-15T16:23:23.610Z,0.45
2017-11-15T16:25:54.893Z,0.82
2017-11-15T16:28:22.443Z,0.57
2017-11-15T16:30:56.304Z,0.81
2017-11-15T16:33:23.838Z,0.82
2017-11-15T16:35:51.643Z,1.08
2017-11-15T16:38:21.212Z,0.61
2017-11-15T16:40:50.555Z,0.03
2017-11-15T16:43:18.207Z,-0.19
2017-11-15T16:45:46.415Z,0.00
2017-11-15T16:48:15.424Z,0.12
2017-11-15T16:50:42.926Z,0.24
2017-11-15T16:53:11.048Z,0.40
2017-11-15T16:55:38.556Z,0.24
2017-11-15T16:58:14.747Z,-0.11
2017-11-15T17:00:44.625Z,-0.47
2017-11-15T17:03:14.374Z,-0.37
2017-11-15T17:05:49.444Z,-0.46
2017-11-15T17:08:16.986Z,-0.66
2017-11-15T17:10:50.573Z,-0.66
2017-11-15T17:13:18.115Z,-0.72
2017-11-15T17:15:49.165Z,-0.61
2017-11-15T17:18:16.705Z,-0.62
2017-11-15T17:20:44.213Z,-0.54
2017-11-15T17:23:42.595Z,-0.59
2017-11-15T17:26:13.508Z,-0.68
2017-11-15T17:28:45.492Z,-0.65
2017-11-15T17:31:13.061Z,-0.40
2017-11-15T17:33:42.756Z,-0.33
2017-11-15T17:36:11.702Z,-0.39
2017-11-15T17:38:39.764Z,-0.59
2017-11-15T17:41:23.617Z,-0.71
2017-11-15T17:43:58.918Z,-0.83
2017-11-15T17:46:31.711Z,-0.82
2017-11-15T17:49:01.373Z,-0.69
2017-11-15T17:51:35.420Z,-0.88
2017-11-15T17:54:02.962Z,-0.83
2017-11-15T17:56:35.050Z,-0.84
2017-11-15T17:59:07.651Z,-1.11
2017-11-15T18:01:35.178Z,-1.14
2017-11-15T18:04:08.816Z,-0.83
2017-11-15T18:06:39.068Z,-0.90
2017-11-15T18:09:06.877Z,-0.85
2017-11-15T18:11:34.426Z,-0.95
2017-11-15T18:14:01.931Z,-1.15
2017-11-15T18:16:34.071Z,-1.19
2017-11-15T18:19:01.590Z,-1.24
2017-11-15T18:21:30.035Z,-1.11
2017-11-15T18:24:01.177Z,-1.10
2017-11-15T18:26:28.705Z,-1.10
2017-11-15T18:28:56.241Z,-1.17
2017-11-15T18:31:23.928Z,-1.22
2017-11-15T18:33:51.798Z,-1.34
2017-11-15T18:36:19.849Z,-1.35
2017-11-15T18:42:07.600Z,-1.32
2017-11-15T18:44:48.807Z,-1.25
2017-11-15T18:47:19.320Z,-1.43
2017-11-15T18:49:50.557Z,-1.29
2017-11-15T18:52:18.759Z,-1.27
2017-11-15T18:54:46.850Z,-1.40
2017-11-15T18:57:14.992Z,-1.49
2017-11-15T18:59:49.249Z,-1.47
2017-11-15T19:02:18.888Z,-1.54
2017-11-15T19:04:47.892Z,-1.61
2017-11-15T19:07:17.818Z,-1.51
2017-11-15T19:09:45.789Z,-1.55
2017-11-15T19:12:18.165Z,-1.50
2017-11-15T19:14:46.027Z,-1.60
2017-11-15T19:17:14.152Z,-1.64
2017-11-15T19:19:42.067Z,-1.60
2017-11-15T19:25:50.408Z,-1.53
2017-11-15T19:28:18.377Z,-1.56
2017-11-15T19:30:48.061Z,-1.36
2017-11-15T19:33:16.057Z,-1.51
2017-11-15T19:35:44.117Z,-1.46
2017-11-15T19:38:12.014Z,-1.46
2017-11-15T19:40:39.948Z,-1.53
2017-11-15T19:43:07.925Z,-1.91
2017-11-15T19:45:35.990Z,-1.89
2017-11-15T19:48:05.583Z,-1.80
2017-11-15T19:50:34.455Z,-1.78
2017-11-15T19:53:02.557Z,-1.78
2017-11-15T19:55:32.545Z,-1.83
2017-11-15T19:58:01.230Z,-1.91
2017-11-15T20:00:29.843Z,-1.85
2017-11-15T20:03:03.348Z,-1.93
2017-11-15T20:05:35.681Z,-1.84
2017-11-15T20:08:06.907Z,-1.77
2017-11-15T20:10:38.429Z,-1.76
2017-11-15T20:13:10.585Z,-1.87
2017-11-15T20:15:40.066Z,-1.96
2017-11-15T20:18:11.173Z,-2.01
2017-11-15T20:20:39.197Z,-1.98
2017-11-15T20:23:07.171Z,-1.96
2017-11-15T20:25:35.143Z,-1.95
2017-11-15T20:28:34.669Z,-1.87
2017-11-15T20:31:02.620Z,-1.94
2017-11-15T20:33:31.236Z,-1.89
2017-11-15T20:36:01.419Z,-1.84
2017-11-15T20:38:29.710Z,-1.85
2017-11-15T20:40:58.953Z,-1.95
2017-11-15T20:43:26.505Z,-2.28
2017-11-15T20:45:59.444Z,-2.23
2017-11-15T20:48:27.705Z,-2.15
2017-11-15T20:50:55.261Z,-2.22
2017-11-15T20:53:22.902Z,-2.15
2017-11-15T20:55:56.291Z,-2.10
2017-11-15T20:58:23.846Z,-2.12
2017-11-15T21:00:52.905Z,-1.97
2017-11-15T21:06:39.907Z,-2.10
2017-11-15T21:09:07.437Z,-2.13
2017-11-15T21:12:37.902Z,-2.21
2017-11-15T21:15:10.859Z,-2.29
2017-11-15T21:17:44.125Z,-2.30
2017-11-15T21:20:20.230Z,-2.22
2017-11-15T21:22:54.068Z,-2.18
2017-11-15T21:25:21.626Z,-2.24
2017-11-15T21:27:49.165Z,-2.16
2017-11-15T21:30:16.714Z,-2.18
2017-11-15T21:32:44.280Z,-2.22
2017-11-15T21:35:11.796Z,-1.90
2017-11-15T21:37:39.389Z,-2.19
2017-11-15T21:40:06.911Z,-2.57
2017-11-15T21:42:41.025Z,-2.58
2017-11-15T21:45:08.550Z,-2.49
2017-11-15T21:47:36.090Z,-2.45
2017-11-15T21:50:05.133Z,-2.52
2017-11-15T22:40:24.878Z,-2.65
2017-11-15T23:04:08.316Z,-2.47
2017-11-15T23:07:28.808Z,-2.40
2017-11-15T23:10:27.563Z,-2.18
2017-11-15T23:13:31.371Z,-2.42
2017-11-15T23:16:06.158Z,-2.69
2017-11-15T23:18:39.916Z,-2.88
2017-11-15T23:21:09.652Z,-3.05
2017-11-15T23:23:42.673Z,-2.92
2017-11-15T23:26:17.990Z,-2.62
2017-11-15T23:28:52.245Z,-2.20
2017-11-15T23:31:25.044Z,-2.30
2017-11-15T23:33:59.404Z,-2.53
2017-11-15T23:36:34.742Z,-2.75
2017-11-15T23:39:10.794Z,-3.00
2017-11-15T23:41:45.053Z,-3.21
2017-11-15T23:44:48.455Z,-3.12
2017-11-15T23:47:34.784Z,-3.10
2017-11-15T23:50:33.520Z,-3.25
2017-11-15T23:53:30.421Z,-3.22
2017-11-15T23:56:30.956Z,-2.78
2017-11-15T23:59:08.759Z,-2.57
